createdAt,value
2023-04-18T00:01:18.547Z,9.27
2023-04-18T00:03:45.207Z,8.10
2023-04-18T00:06:13.024Z,8.37
2023-04-18T00:08:39.728Z,9.93
2023-04-18T00:11:06.277Z,10.50
2023-04-18T00:13:32.776Z,12.30
2023-04-18T00:15:59.353Z,8.77
2023-04-18T00:18:26.428Z,10.27
2023-04-18T00:20:53.807Z,11.33
2023-04-18T00:23:21.536Z,11.13
2023-04-18T00:25:51.052Z,11.77
2023-04-18T00:28:17.561Z,12.70
2023-04-18T00:30:44.783Z,9.47
2023-04-18T00:33:11.396Z,8.83
2023-04-18T00:35:38.002Z,8.40
2023-04-18T00:38:04.660Z,12.43
2023-04-18T00:40:31.188Z,12.40
2023-04-18T00:42:57.734Z,9.10
2023-04-18T00:45:24.410Z,8.80
2023-04-18T00:47:51.229Z,9.00
2023-04-18T00:50:18.995Z,9.57
2023-04-18T00:52:46.839Z,8.57
2023-04-18T00:55:13.463Z,12.53
2023-04-18T00:57:41.356Z,10.87
2023-04-18T01:00:09.570Z,9.33
2023-04-18T01:02:39.281Z,8.87
2023-04-18T01:05:07.393Z,12.00
2023-04-18T01:07:39.888Z,10.80
2023-04-18T01:10:08.310Z,10.63
2023-04-18T01:12:36.562Z,7.80
2023-04-18T01:15:07.622Z,8.57
2023-04-18T01:17:34.788Z,10.40
2023-04-18T01:20:04.220Z,7.73
2023-04-18T01:22:33.681Z,10.03
2023-04-18T01:25:00.269Z,7.47
2023-04-18T01:27:26.900Z,8.60
2023-04-18T01:29:53.425Z,8.90
2023-04-18T01:32:19.952Z,9.10
2023-04-18T01:34:46.506Z,9.43
2023-04-18T01:37:13.000Z,8.13
2023-04-18T01:39:39.515Z,16.20
2023-04-18T01:42:06.025Z,8.13
2023-04-18T01:44:32.533Z,7.93
2023-04-18T01:46:59.123Z,12.40
2023-04-18T01:49:25.758Z,8.73
2023-04-18T01:51:52.222Z,7.13
2023-04-18T01:54:18.728Z,7.67
2023-04-18T01:56:45.202Z,10.27
2023-04-18T01:59:11.776Z,7.80
2023-04-18T02:01:38.241Z,8.83
2023-04-18T02:04:04.780Z,7.57
2023-04-18T02:06:31.300Z,9.80
2023-04-18T02:08:57.821Z,8.00
2023-04-18T02:11:24.388Z,11.67
2023-04-18T02:13:51.687Z,6.57
2023-04-18T02:16:18.210Z,15.53
2023-04-18T02:18:44.701Z,10.37
2023-04-18T02:21:11.271Z,10.50
2023-04-18T02:23:37.777Z,7.67
2023-04-18T02:26:04.314Z,9.97
2023-04-18T02:28:30.787Z,8.77
2023-04-18T02:30:59.304Z,6.47
2023-04-18T02:33:25.836Z,7.83
2023-04-18T02:35:52.367Z,11.13
2023-04-18T02:38:18.845Z,11.73
2023-04-18T02:40:45.341Z,14.03
2023-04-18T02:43:11.826Z,13.07
2023-04-18T02:45:38.549Z,9.47
2023-04-18T02:48:05.219Z,9.70
2023-04-18T02:50:31.712Z,10.80
2023-04-18T02:52:58.220Z,8.90
2023-04-18T02:55:26.141Z,8.67
2023-04-18T02:57:52.643Z,8.90
2023-04-18T03:00:19.321Z,7.93
2023-04-18T03:02:45.970Z,9.83
2023-04-18T03:05:12.782Z,10.97
2023-04-18T03:07:39.352Z,8.30
2023-04-18T03:10:06.509Z,7.77
2023-04-18T03:12:33.173Z,11.30
2023-04-18T03:14:59.649Z,12.80
2023-04-18T03:17:26.279Z,9.30
2023-04-18T03:19:52.786Z,8.43
2023-04-18T03:22:19.290Z,8.57
2023-04-18T03:24:45.808Z,9.50
2023-04-18T03:27:13.023Z,10.67
2023-04-18T03:29:39.534Z,8.87
2023-04-18T03:32:06.110Z,10.23
2023-04-18T03:34:32.558Z,8.90
2023-04-18T03:36:59.082Z,11.07
2023-04-18T03:39:25.610Z,8.80
2023-04-18T03:41:52.091Z,8.67
2023-04-18T03:44:18.564Z,9.40
2023-04-18T03:46:45.154Z,8.83
2023-04-18T03:49:11.714Z,7.73
2023-04-18T03:51:47.075Z,8.93
2023-04-18T03:54:14.779Z,10.57
2023-04-18T03:56:41.864Z,13.10
2023-04-18T03:59:08.609Z,10.43
2023-04-18T04:01:35.163Z,8.60
2023-04-18T04:04:02.739Z,9.57
2023-04-18T04:06:31.422Z,7.80
2023-04-18T04:08:58.085Z,8.27
2023-04-18T04:11:24.791Z,13.47
2023-04-18T04:13:51.530Z,12.67
2023-04-18T04:16:18.186Z,8.77
2023-04-18T04:18:44.686Z,9.40
2023-04-18T04:21:11.266Z,7.33
2023-04-18T04:23:37.842Z,9.87
2023-04-18T04:26:04.446Z,10.40
2023-04-18T04:28:30.991Z,9.07
2023-04-18T04:30:58.569Z,10.57
2023-04-18T04:33:28.872Z,7.37
2023-04-18T04:35:56.084Z,31.57
2023-04-18T04:38:22.595Z,10.77
2023-04-18T04:40:49.486Z,10.10
2023-04-18T04:43:16.718Z,19.03
2023-04-18T04:45:43.835Z,13.20
2023-04-18T04:48:10.633Z,11.03
2023-04-18T04:50:40.794Z,7.60
2023-04-18T04:53:08.220Z,7.83
2023-04-18T04:55:34.812Z,8.80
2023-04-18T04:58:01.309Z,12.73
2023-04-18T05:00:28.400Z,7.27
2023-04-18T05:02:59.141Z,7.47
2023-04-18T05:05:25.717Z,11.13
2023-04-18T05:07:52.242Z,8.37
2023-04-18T05:10:18.790Z,7.33
2023-04-18T05:12:45.335Z,6.37
2023-04-18T05:15:12.452Z,15.40
2023-04-18T05:17:38.978Z,7.83
2023-04-18T05:20:06.712Z,10.93
2023-04-18T05:22:33.249Z,6.93
2023-04-18T05:25:00.234Z,7.37
2023-04-18T05:27:27.197Z,17.77
2023-04-18T05:29:53.928Z,14.47
2023-04-18T05:32:20.835Z,17.57
2023-04-18T05:34:48.510Z,8.47
2023-04-18T05:37:15.026Z,11.40
2023-04-18T05:39:41.817Z,16.73
2023-04-18T05:42:08.367Z,12.67
2023-04-18T05:44:36.682Z,8.03
2023-04-18T05:47:05.446Z,8.30
2023-04-18T05:49:32.281Z,13.80
2023-04-18T05:51:58.840Z,18.57
2023-04-18T05:54:25.391Z,11.40
2023-04-18T05:56:51.943Z,8.73
2023-04-18T05:59:18.417Z,8.97
2023-04-18T06:01:44.933Z,8.00
2023-04-18T06:04:11.818Z,6.70
2023-04-18T06:06:38.634Z,8.40
2023-04-18T06:09:05.168Z,10.03
2023-04-18T06:11:34.988Z,7.53
2023-04-18T06:14:02.823Z,9.63
2023-04-18T06:16:29.347Z,6.87
2023-04-18T06:18:58.367Z,7.30
2023-04-18T06:21:27.148Z,8.00
2023-04-18T06:23:53.640Z,9.17
2023-04-18T06:26:20.175Z,10.87
2023-04-18T06:28:46.687Z,24.57
2023-04-18T06:31:13.230Z,11.93
2023-04-18T06:33:39.810Z,11.20
2023-04-18T06:36:06.917Z,8.03
2023-04-18T06:38:33.792Z,8.90
2023-04-18T06:41:00.319Z,15.90
2023-04-18T06:43:26.801Z,18.70
2023-04-18T06:45:54.021Z,11.73
2023-04-18T06:48:20.873Z,13.60
2023-04-18T06:50:47.559Z,16.50
2023-04-18T06:53:14.650Z,14.00
2023-04-18T06:55:41.190Z,15.30
2023-04-18T06:58:09.311Z,13.50
2023-04-18T07:00:35.790Z,14.27
2023-04-18T07:03:10.877Z,28.13
2023-04-18T07:05:41.042Z,27.37
2023-04-18T07:08:07.964Z,21.17
2023-04-18T07:10:34.466Z,19.03
2023-04-18T07:13:00.965Z,22.27
2023-04-18T07:15:27.540Z,11.77
2023-04-18T07:17:54.884Z,18.34
2023-04-18T07:20:21.514Z,14.43
2023-04-18T07:22:48.769Z,14.00
2023-04-18T07:25:15.313Z,12.57
2023-04-18T07:27:41.824Z,14.37
2023-04-18T07:30:09.439Z,10.90
2023-04-18T07:32:36.016Z,11.53
2023-04-18T07:35:03.344Z,16.93
2023-04-18T07:37:29.996Z,12.53
2023-04-18T07:39:56.573Z,12.53
2023-04-18T07:42:23.111Z,11.80
2023-04-18T07:44:49.733Z,12.87
2023-04-18T07:47:16.436Z,12.10
2023-04-18T07:49:43.047Z,11.83
2023-04-18T07:52:09.559Z,11.87
2023-04-18T07:54:36.080Z,11.17
2023-04-18T07:57:02.601Z,6.33
2023-04-18T07:59:29.172Z,10.30
2023-04-18T08:01:55.756Z,9.43
2023-04-18T08:04:22.405Z,9.93
2023-04-18T08:06:48.978Z,7.37
2023-04-18T08:09:15.791Z,10.77
2023-04-18T08:11:42.662Z,8.10
2023-04-18T08:14:09.190Z,6.80
2023-04-18T08:16:36.288Z,7.10
2023-04-18T08:19:03.040Z,5.83
2023-04-18T08:21:30.445Z,4.90
2023-04-18T08:23:56.937Z,9.37
2023-04-18T08:26:23.464Z,18.50
2023-04-18T08:28:50.292Z,7.27
2023-04-18T08:31:16.978Z,9.50
2023-04-18T08:33:43.605Z,8.55
2023-04-18T08:36:11.241Z,7.23
2023-04-18T08:38:37.784Z,5.37
2023-04-18T08:41:04.291Z,9.93
2023-04-18T08:43:30.863Z,12.70
2023-04-18T08:46:00.947Z,4.72
2023-04-18T08:48:27.793Z,3.00
2023-04-18T08:50:58.611Z,6.62
2023-04-18T08:53:28.422Z,2.28
2023-04-18T08:55:59.540Z,2.47
2023-04-18T08:58:26.900Z,9.38
2023-04-18T09:00:54.273Z,1.92
2023-04-18T09:03:39.360Z,0.70
2023-04-18T09:06:07.675Z,3.45
2023-04-18T09:08:34.756Z,1.87
2023-04-18T09:11:25.261Z,11.12
2023-04-18T09:13:52.512Z,4.70
2023-04-18T09:16:21.752Z,13.13
2023-04-18T09:19:12.332Z,6.25
2023-04-18T09:21:41.989Z,1.20
2023-04-18T09:24:23.145Z,2.72
2023-04-18T09:26:50.659Z,1.58
2023-04-18T09:29:21.563Z,1.62
2023-04-18T09:32:01.594Z,0.93
2023-04-18T09:34:28.737Z,2.03
2023-04-18T09:37:29.179Z,4.15
2023-04-18T09:39:55.820Z,3.75
2023-04-18T09:42:22.983Z,2.75
2023-04-18T09:45:07.623Z,1.58
2023-04-18T09:47:35.657Z,7.22
2023-04-18T09:50:11.744Z,1.52
2023-04-18T09:52:41.036Z,12.18
2023-04-18T09:55:10.765Z,3.20
2023-04-18T09:57:41.685Z,12.18
2023-04-18T10:00:19.474Z,1.98
2023-04-18T10:03:07.981Z,4.37
2023-04-18T10:05:36.780Z,7.90
2023-04-18T10:08:04.271Z,6.43
2023-04-18T10:10:31.429Z,1.70
2023-04-18T10:13:00.724Z,6.05
2023-04-18T10:15:30.133Z,2.35
2023-04-18T10:18:06.567Z,1.48
2023-04-18T10:20:34.272Z,3.53
2023-04-18T10:23:39.940Z,2.92
2023-04-18T10:26:08.395Z,27.13
2023-04-18T10:28:58.072Z,4.35
2023-04-18T10:31:27.328Z,4.10
2023-04-18T10:36:30.137Z,0.85
2023-04-18T10:40:34.140Z,2.25
2023-04-18T10:43:01.044Z,1.80
2023-04-18T10:45:30.569Z,1.40
2023-04-18T10:48:29.089Z,2.42
2023-04-18T10:51:21.160Z,1.77
2023-04-18T10:53:58.887Z,5.07
2023-04-18T10:56:27.294Z,0.85
2023-04-18T10:58:54.174Z,1.50
2023-04-18T11:01:31.998Z,1.48
2023-04-18T11:04:00.597Z,1.60
2023-04-18T11:06:27.665Z,1.70
2023-04-18T11:09:16.076Z,0.70
2023-04-18T11:11:43.542Z,1.60
2023-04-18T11:14:10.193Z,3.33
2023-04-18T11:16:36.757Z,2.35
2023-04-18T11:19:22.875Z,4.47
2023-04-18T11:21:50.552Z,3.40
2023-04-18T11:24:23.446Z,0.93
2023-04-18T11:26:52.818Z,1.00
2023-04-18T11:29:19.320Z,0.93
2023-04-18T11:31:54.607Z,0.88
2023-04-18T11:34:32.010Z,1.25
2023-04-18T11:36:58.683Z,4.20
2023-04-18T11:39:25.241Z,2.95
2023-04-18T11:41:52.046Z,0.75
2023-04-18T11:44:24.141Z,3.17
2023-04-18T11:46:51.190Z,1.23
2023-04-18T11:49:38.860Z,1.12
2023-04-18T11:52:14.541Z,1.12
2023-04-18T11:54:44.783Z,4.43
2023-04-18T11:57:26.699Z,1.25
2023-04-18T11:59:58.791Z,1.15
2023-04-18T12:02:39.328Z,2.05
2023-04-18T12:05:07.086Z,0.70
2023-04-18T12:07:44.113Z,1.17
2023-04-18T12:10:29.112Z,1.58
2023-04-18T12:12:58.215Z,0.80
2023-04-18T12:15:27.855Z,4.75
2023-04-18T12:18:00.246Z,2.85
2023-04-18T12:20:45.479Z,2.70
2023-04-18T12:23:39.466Z,4.55
2023-04-18T12:26:19.534Z,1.98
2023-04-18T12:28:50.653Z,2.67
2023-04-18T12:31:17.456Z,5.50
2023-04-18T12:33:43.956Z,2.58
2023-04-18T12:36:10.543Z,3.17
2023-04-18T12:38:37.138Z,2.83
2023-04-18T12:41:03.686Z,2.53
2023-04-18T12:43:30.212Z,2.60
2023-04-18T12:45:57.017Z,3.50
2023-04-18T12:48:23.535Z,3.40
2023-04-18T12:50:50.103Z,5.65
2023-04-18T12:53:16.598Z,2.80
2023-04-18T12:55:43.128Z,8.57
2023-04-18T12:58:09.653Z,3.15
2023-04-18T13:00:36.476Z,2.30
2023-04-18T13:03:03.330Z,2.95
2023-04-18T13:05:32.872Z,3.22
2023-04-18T13:10:30.821Z,4.70
2023-04-18T13:12:57.275Z,2.17
2023-04-18T13:15:23.870Z,6.37
2023-04-18T13:17:50.542Z,2.53
2023-04-18T13:20:18.215Z,2.60
2023-04-18T13:22:45.173Z,3.25
2023-04-18T13:25:11.848Z,6.32
2023-04-18T13:27:42.012Z,2.83
2023-04-18T13:30:10.823Z,2.90
2023-04-18T13:32:38.427Z,3.17
2023-04-18T13:35:07.525Z,3.47
2023-04-18T13:37:34.084Z,2.33
2023-04-18T13:40:00.590Z,3.75
2023-04-18T13:42:27.084Z,2.25
2023-04-18T13:44:53.731Z,2.50
2023-04-18T13:47:20.240Z,5.05
2023-04-18T13:49:46.723Z,3.22
2023-04-18T13:52:13.195Z,1.92
2023-04-18T13:54:40.651Z,7.68
2023-04-18T13:57:10.849Z,2.85
2023-04-18T13:59:39.825Z,3.22
2023-04-18T14:02:08.960Z,6.30
2023-04-18T14:04:36.583Z,2.33
2023-04-18T14:07:05.425Z,3.53
2023-04-18T14:09:31.966Z,4.53
2023-04-18T14:11:58.465Z,1.95
2023-04-18T14:14:25.091Z,1.90
2023-04-18T14:16:52.852Z,3.10
2023-04-18T14:19:19.393Z,2.37
2023-04-18T14:21:47.117Z,2.00
2023-04-18T14:24:13.658Z,5.37
2023-04-18T14:26:40.201Z,3.42
2023-04-18T14:29:06.773Z,3.45
2023-04-18T14:31:33.332Z,3.35
2023-04-18T14:33:59.936Z,4.47
2023-04-18T14:36:26.934Z,2.12
2023-04-18T14:38:54.320Z,3.03
2023-04-18T14:41:20.945Z,3.50
2023-04-18T14:43:47.697Z,4.37
2023-04-18T14:46:18.175Z,6.53
2023-04-18T14:48:48.144Z,6.53
2023-04-18T14:51:17.014Z,2.45
2023-04-18T14:53:44.821Z,2.90
2023-04-18T14:56:11.499Z,3.45
2023-04-18T14:58:38.093Z,2.50
2023-04-18T15:01:04.912Z,5.68
2023-04-18T15:03:31.769Z,3.27
2023-04-18T15:05:58.424Z,3.23
2023-04-18T15:08:24.950Z,2.83
2023-04-18T15:10:51.450Z,3.30
2023-04-18T15:13:17.988Z,2.20
2023-04-18T15:15:55.578Z,2.30
2023-04-18T15:18:22.111Z,2.93
2023-04-18T15:20:48.642Z,2.40
2023-04-18T15:23:15.608Z,3.53
2023-04-18T15:25:44.223Z,3.92
2023-04-18T15:28:12.541Z,2.17
2023-04-18T15:30:39.328Z,2.55
2023-04-18T15:33:05.867Z,3.03
2023-04-18T15:35:32.387Z,3.33
2023-04-18T15:37:58.907Z,10.87
2023-04-18T15:40:25.482Z,3.60
2023-04-18T15:42:53.540Z,3.67
2023-04-18T15:45:21.137Z,3.77
2023-04-18T15:47:47.769Z,3.17
2023-04-18T15:50:15.317Z,5.10
2023-04-18T15:52:41.842Z,2.67
2023-04-18T15:55:12.322Z,3.53
2023-04-18T15:57:39.560Z,3.60
2023-04-18T16:00:15.206Z,3.83
2023-04-18T16:02:43.719Z,2.90
2023-04-18T16:05:11.680Z,2.70
2023-04-18T16:07:42.189Z,2.40
2023-04-18T16:10:11.753Z,3.43
2023-04-18T16:12:39.485Z,3.20
2023-04-18T16:15:08.796Z,1.83
2023-04-18T16:17:36.524Z,2.27
2023-04-18T16:20:05.271Z,2.17
2023-04-18T16:22:31.773Z,4.83
2023-04-18T16:24:58.272Z,3.40
2023-04-18T16:27:24.794Z,3.27
2023-04-18T16:29:52.989Z,2.30
2023-04-18T16:32:19.568Z,3.30
2023-04-18T16:34:46.051Z,4.40
2023-04-18T16:37:12.561Z,2.47
2023-04-18T16:39:39.073Z,2.87
2023-04-18T16:42:05.596Z,6.73
2023-04-18T16:44:32.450Z,3.03
2023-04-18T16:46:59.127Z,2.43
2023-04-18T16:49:25.769Z,2.80
2023-04-18T16:51:52.268Z,3.03
2023-04-18T16:54:18.892Z,3.23
2023-04-18T16:56:45.427Z,3.77
2023-04-18T16:59:11.909Z,4.23
2023-04-18T17:01:38.488Z,2.60
2023-04-18T17:04:05.376Z,4.13
2023-04-18T17:06:31.946Z,2.73
2023-04-18T17:08:58.945Z,3.27
2023-04-18T17:11:25.811Z,2.73
2023-04-18T17:13:52.323Z,3.77
2023-04-18T17:16:18.891Z,3.30
2023-04-18T17:18:45.392Z,2.90
2023-04-18T17:21:11.894Z,2.90
2023-04-18T17:23:40.798Z,2.60
2023-04-18T17:26:08.348Z,2.97
2023-04-18T17:28:35.523Z,3.77
2023-04-18T17:31:02.031Z,3.73
2023-04-18T17:33:28.568Z,8.27
2023-04-18T17:35:55.073Z,3.40
2023-04-18T17:38:21.678Z,7.03
2023-04-18T17:40:48.195Z,4.50
2023-04-18T17:43:14.674Z,2.90
2023-04-18T17:45:41.664Z,2.97
2023-04-18T17:48:08.224Z,5.73
2023-04-18T17:50:37.224Z,4.40
2023-04-18T17:53:03.736Z,2.60
2023-04-18T17:55:30.229Z,3.70
2023-04-18T17:57:56.767Z,4.97
2023-04-18T18:00:23.519Z,4.83
2023-04-18T18:02:50.151Z,3.60
2023-04-18T18:05:16.768Z,3.90
2023-04-18T18:07:46.682Z,3.63
2023-04-18T18:10:19.776Z,2.90
2023-04-18T18:12:46.645Z,3.23
2023-04-18T18:15:13.244Z,4.97
2023-04-18T18:17:39.778Z,5.13
2023-04-18T18:20:12.482Z,6.07
2023-04-18T18:22:38.994Z,6.23
2023-04-18T18:25:06.635Z,10.10
2023-04-18T18:27:33.169Z,6.97
2023-04-18T18:29:59.678Z,10.67
2023-04-18T18:32:26.265Z,8.50
2023-04-18T18:34:52.833Z,12.43
2023-04-18T18:37:19.423Z,7.73
2023-04-18T18:39:45.948Z,7.43
2023-04-18T18:42:12.420Z,7.23
2023-04-18T18:44:38.941Z,5.57
2023-04-18T18:47:05.445Z,7.87
2023-04-18T18:49:31.961Z,9.07
2023-04-18T18:51:58.514Z,9.33
2023-04-18T18:54:25.266Z,17.10
2023-04-18T18:56:51.920Z,13.17
2023-04-18T18:59:18.406Z,9.73
2023-04-18T19:01:44.929Z,10.53
2023-04-18T19:04:11.705Z,10.03
2023-04-18T19:06:38.296Z,13.33
2023-04-18T19:09:04.794Z,10.47
2023-04-18T19:11:31.318Z,8.93
2023-04-18T19:13:57.838Z,8.27
2023-04-18T19:16:24.501Z,7.80
2023-04-18T19:18:51.592Z,8.97
2023-04-18T19:21:19.459Z,8.03
2023-04-18T19:23:45.953Z,5.73
2023-04-18T19:26:12.427Z,9.40
2023-04-18T19:28:38.929Z,9.43
2023-04-18T19:31:05.481Z,9.43
2023-04-18T19:33:31.992Z,6.17
2023-04-18T19:35:58.573Z,9.73
2023-04-18T19:38:25.178Z,13.23
2023-04-18T19:40:51.691Z,13.87
2023-04-18T19:43:18.187Z,9.67
2023-04-18T19:45:44.866Z,8.90
2023-04-18T19:48:11.420Z,10.43
2023-04-18T19:50:41.596Z,9.87
2023-04-18T19:53:08.721Z,9.67
2023-04-18T19:55:35.263Z,11.07
2023-04-18T19:58:01.831Z,8.30
2023-04-18T20:00:28.662Z,6.27
2023-04-18T20:02:56.368Z,5.23
2023-04-18T20:05:23.197Z,6.07
2023-04-18T20:07:49.754Z,7.23
2023-04-18T20:10:21.405Z,6.07
2023-04-18T20:12:49.939Z,6.93
2023-04-18T20:15:17.182Z,7.30
2023-04-18T20:17:43.765Z,7.13
2023-04-18T20:20:11.341Z,5.87
2023-04-18T20:22:39.582Z,5.83
2023-04-18T20:25:06.519Z,5.53
2023-04-18T20:27:33.032Z,7.33
2023-04-18T20:29:59.532Z,5.63
2023-04-18T20:32:29.338Z,5.77
2023-04-18T20:34:56.530Z,6.23
2023-04-18T20:37:23.736Z,6.43
2023-04-18T20:39:50.281Z,6.03
2023-04-18T20:42:16.788Z,9.37
2023-04-18T20:44:43.969Z,5.83
2023-04-18T20:47:10.436Z,5.53
2023-04-18T20:49:37.575Z,9.83
2023-04-18T20:52:08.890Z,7.73
2023-04-18T20:54:35.603Z,9.47
2023-04-18T20:57:02.192Z,9.70
2023-04-18T20:59:28.752Z,10.00
2023-04-18T21:01:55.325Z,10.20
2023-04-18T21:04:22.371Z,8.60
2023-04-18T21:06:48.932Z,10.80
2023-04-18T21:09:15.558Z,10.50
2023-04-18T21:11:42.214Z,7.87
2023-04-18T21:14:08.665Z,9.23
2023-04-18T21:16:36.043Z,9.70
2023-04-18T21:19:02.529Z,10.63
2023-04-18T21:21:29.206Z,8.37
2023-04-18T21:23:55.692Z,10.40
2023-04-18T21:26:22.183Z,5.83
2023-04-18T21:29:07.140Z,4.97
2023-04-18T21:31:34.919Z,6.03
2023-04-18T21:34:04.127Z,5.93
2023-04-18T21:36:31.723Z,10.53
2023-04-18T21:39:00.315Z,12.50
2023-04-18T21:41:27.126Z,12.83
2023-04-18T21:43:53.666Z,14.53
2023-04-18T21:46:20.304Z,16.63
2023-04-18T21:48:47.887Z,6.83
2023-04-18T21:51:16.145Z,7.07
2023-04-18T21:53:45.183Z,5.03
2023-04-18T21:56:11.690Z,5.43
2023-04-18T21:58:38.200Z,7.03
2023-04-18T22:01:04.824Z,4.87
2023-04-18T22:03:33.422Z,6.90
2023-04-18T22:06:00.891Z,6.17
2023-04-18T22:08:27.757Z,8.23
2023-04-18T22:10:56.885Z,5.40
2023-04-18T22:13:24.531Z,6.00
2023-04-18T22:15:51.225Z,10.50
2023-04-18T22:18:18.741Z,7.13
2023-04-18T22:20:46.162Z,7.50
2023-04-18T22:23:12.868Z,7.20
2023-04-18T22:25:39.398Z,7.73
2023-04-18T22:28:05.933Z,6.63
2023-04-18T22:30:32.486Z,5.70
2023-04-18T22:32:59.045Z,4.57
2023-04-18T22:35:26.298Z,4.90
2023-04-18T22:37:52.807Z,5.70
2023-04-18T22:40:19.412Z,6.03
2023-04-18T22:42:45.941Z,7.53
2023-04-18T22:45:12.819Z,5.70
2023-04-18T22:47:39.384Z,4.77
2023-04-18T22:50:07.529Z,4.60
2023-04-18T22:52:34.267Z,6.40
2023-04-18T22:55:02.469Z,6.20
2023-04-18T22:57:29.075Z,5.37
2023-04-18T22:59:55.721Z,4.47
2023-04-18T23:02:25.253Z,6.07
2023-04-18T23:04:52.457Z,4.67
2023-04-18T23:07:19.201Z,5.80
2023-04-18T23:09:45.700Z,6.00
2023-04-18T23:12:12.197Z,5.33
2023-04-18T23:14:41.011Z,4.77
2023-04-18T23:17:07.741Z,6.10
2023-04-18T23:19:34.283Z,5.07
2023-04-18T23:22:00.808Z,6.03
2023-04-18T23:24:27.282Z,5.33
2023-04-18T23:26:53.805Z,5.60
2023-04-18T23:29:20.633Z,8.50
2023-04-18T23:31:47.188Z,6.27
2023-04-18T23:34:14.008Z,5.07
2023-04-18T23:36:41.777Z,4.13
2023-04-18T23:39:08.328Z,4.53
2023-04-18T23:41:34.837Z,5.93
2023-04-18T23:44:01.422Z,5.00
2023-04-18T23:46:30.886Z,5.23
2023-04-18T23:48:57.442Z,4.73
2023-04-18T23:51:24.000Z,5.23
2023-04-18T23:53:50.909Z,5.67
2023-04-18T23:56:17.402Z,5.13
2023-04-18T23:58:43.973Z,4.40
